Time;durP1;ratioP1;P1;durP2;ratioP2;P2;SDS_P1;SDS_P2;PMS_P1;PMS_P2;Temp;Humidity;BMP_temperature;BMP_pressure;BME280_temperature;BME280_humidity;BME280_pressure;Samples;Min_cycle;Max_cycle;Signal;HPM_P1;HPM_P2
2023/01/14 00:01:43;;;;;;;1.10;1.00;;;6.60;99.90;;;;;;4992639;28;20241;-53
2023/01/14 00:04:09;;;;;;;2.63;1.50;;;6.60;99.90;;;;;;5002534;28;20176;-56
2023/01/14 00:06:35;;;;;;;1.43;1.10;;;6.50;99.90;;;;;;5013250;28;20211;-58
2023/01/14 00:09:06;;;;;;;2.00;1.40;;;6.50;99.90;;;;;;5013529;28;20212;-59
2023/01/14 00:11:51;;;;;;;2.13;1.23;;;6.40;99.90;;;;;;5012900;28;20224;-52
2023/01/14 00:14:27;;;;;;;1.20;1.10;;;6.30;99.90;;;;;;5012536;28;20176;-52
2023/01/14 00:16:53;;;;;;;3.00;1.57;;;6.40;99.90;;;;;;4999105;28;20172;-53
2023/01/14 00:19:20;;;;;;;1.47;1.10;;;6.40;99.90;;;;;;5001670;28;20259;-55
2023/01/14 00:21:45;;;;;;;2.03;1.13;;;6.40;99.90;;;;;;5011004;28;20172;-51
2023/01/14 00:24:12;;;;;;;2.40;1.20;;;6.40;99.90;;;;;;5012906;28;20235;-56
2023/01/14 00:26:39;;;;;;;1.30;1.20;;;6.40;99.90;;;;;;5005811;28;20581;-57
2023/01/14 00:29:05;;;;;;;3.20;1.50;;;6.30;99.90;;;;;;4994017;28;20228;-56
2023/01/14 00:31:31;;;;;;;1.77;1.10;;;7.20;99.90;;;;;;4994122;28;20204;-55
2023/01/14 00:33:59;;;;;;;1.40;0.97;;;6.20;99.90;;;;;;4994136;28;20244;-55
2023/01/14 00:36:25;;;;;;;4.70;1.40;;;6.20;99.90;;;;;;5013689;28;20172;-56
2023/01/14 00:38:52;;;;;;;1.87;1.13;;;6.10;99.90;;;;;;5011315;28;20242;-53
2023/01/14 00:41:21;;;;;;;1.97;0.90;;;6.00;99.90;;;;;;5012170;28;20193;-51
2023/01/14 00:43:49;;;;;;;3.07;1.20;;;6.10;99.90;;;;;;5011782;28;20183;-52
2023/01/14 00:46:18;;;;;;;1.80;1.07;;;6.10;99.90;;;;;;5012511;28;20173;-58
2023/01/14 00:48:44;;;;;;;3.47;1.23;;;6.10;99.90;;;;;;5012375;28;20208;-57
2023/01/14 00:51:11;;;;;;;1.90;1.13;;;6.10;99.90;;;;;;5011838;28;20660;-54
2023/01/14 00:53:38;;;;;;;1.57;1.30;;;6.00;99.90;;;;;;5012035;28;20168;-56
2023/01/14 00:56:04;;;;;;;1.47;0.80;;;6.00;99.90;;;;;;5011741;28;20244;-55
2023/01/14 00:58:30;;;;;;;2.50;1.43;;;6.00;99.90;;;;;;5005667;28;20177;-54
2023/01/14 01:00:56;;;;;;;3.07;1.20;;;5.90;99.90;;;;;;5004887;28;20585;-52
2023/01/14 01:03:22;;;;;;;1.77;1.20;;;5.80;99.90;;;;;;5003281;28;20170;-50
2023/01/14 01:05:48;;;;;;;2.17;1.10;;;5.80;99.90;;;;;;4991852;28;20181;-51
2023/01/14 01:08:16;;;;;;;2.87;1.20;;;5.80;99.90;;;;;;5003758;28;20207;-53
2023/01/14 01:10:44;;;;;;;2.90;1.30;;;5.80;99.90;;;;;;5011903;28;20216;-51
2023/01/14 01:13:10;;;;;;;2.00;1.27;;;5.90;99.90;;;;;;5012010;28;20242;-54
2023/01/14 01:15:36;;;;;;;1.97;1.20;;;5.20;99.90;;;;;;5012210;28;20637;-51
2023/01/14 01:18:03;;;;;;;1.93;1.17;;;5.80;99.90;;;;;;4994858;28;20688;-54
2023/01/14 01:20:30;;;;;;;2.43;0.90;;;5.80;99.90;;;;;;5001741;28;20204;-58
2023/01/14 01:22:55;;;;;;;2.73;1.40;;;5.90;99.90;;;;;;5001781;28;20534;-55
2023/01/14 01:25:21;;;;;;;3.23;1.30;;;5.90;99.90;;;;;;5008503;28;20172;-52
2023/01/14 01:27:47;;;;;;;3.30;1.20;;;5.80;99.90;;;;;;5012036;28;20184;-52
2023/01/14 01:30:13;;;;;;;5.40;1.20;;;5.80;99.90;;;;;;5010774;28;20197;-57
2023/01/14 01:32:38;;;;;;;1.20;1.00;;;5.80;99.90;;;;;;5011881;28;20208;-51
2023/01/14 01:35:04;;;;;;;2.40;1.30;;;5.80;99.90;;;;;;5009531;28;20176;-54
2023/01/14 01:37:30;;;;;;;3.10;1.27;;;5.80;99.90;;;;;;5004150;28;20188;-51
2023/01/14 01:39:55;;;;;;;2.83;1.33;;;5.70;99.90;;;;;;4992733;28;20205;-54
2023/01/14 01:42:23;;;;;;;2.07;1.37;;;5.60;99.90;;;;;;4996274;28;20184;-54
2023/01/14 01:44:48;;;;;;;2.77;1.30;;;5.60;99.90;;;;;;5007273;28;20188;-56
2023/01/14 01:47:17;;;;;;;4.57;1.10;;;5.60;99.90;;;;;;4998583;28;20176;-52
2023/01/14 01:49:44;;;;;;;3.97;1.40;;;5.60;99.90;;;;;;5008532;28;20203;-55
2023/01/14 01:52:17;;;;;;;1.90;1.10;;;5.50;99.90;;;;;;4992579;28;20180;-51
2023/01/14 01:55:13;;;;;;;4.27;1.47;;;5.50;99.90;;;;;;5002441;28;20223;-51
2023/01/14 01:57:40;;;;;;;2.13;1.23;;;5.60;99.90;;;;;;4994105;28;20239;-55
2023/01/14 02:00:08;;;;;;;1.83;1.30;;;5.70;99.90;;;;;;5009377;28;20212;-51
2023/01/14 02:02:34;;;;;;;2.90;1.57;;;5.70;99.90;;;;;;5009722;28;20184;-54
2023/01/14 02:05:00;;;;;;;4.47;1.40;;;5.60;99.90;;;;;;5006590;28;20191;-55
2023/01/14 02:07:26;;;;;;;2.13;1.10;;;5.60;99.90;;;;;;5007577;28;20180;-53
2023/01/14 02:09:56;;;;;;;3.80;1.50;;;5.60;99.90;;;;;;5010774;28;20250;-52
2023/01/14 02:12:38;;;;;;;2.43;1.10;;;5.60;99.90;;;;;;5011403;28;20172;-51
2023/01/14 02:15:22;;;;;;;4.63;1.33;;;5.60;99.90;;;;;;5008030;28;20185;-52
2023/01/14 02:17:51;;;;;;;3.77;1.53;;;5.60;99.90;;;;;;5009568;28;20184;-54
2023/01/14 02:20:34;;;;;;;2.13;1.00;;;5.70;99.90;;;;;;5010156;28;20704;-59
2023/01/14 02:23:11;;;;;;;3.87;1.27;;;5.60;99.90;;;;;;5009750;28;20176;-53
2023/01/14 02:26:08;;;;;;;1.00;0.90;;;5.60;99.90;;;;;;4999941;28;20184;-57
2023/01/14 02:28:59;;;;;;;2.23;1.37;;;5.60;99.90;;;;;;4991774;28;20195;-53
2023/01/14 02:31:34;;;;;;;2.63;1.40;;;5.50;99.90;;;;;;4990901;28;20208;-53
2023/01/14 02:34:15;;;;;;;1.80;1.10;;;5.60;99.90;;;;;;4999843;28;20192;-53
2023/01/14 02:36:47;;;;;;;2.40;1.00;;;5.50;99.90;;;;;;4991185;28;20197;-54
2023/01/14 02:39:25;;;;;;;1.93;1.07;;;5.50;99.90;;;;;;5000085;28;20200;-56
2023/01/14 02:44:58;;;;;;;2.87;1.13;;;5.60;99.90;;;;;;4997322;28;20830;-52
2023/01/14 02:47:25;;;;;;;2.60;1.13;;;5.70;99.90;;;;;;4991556;28;20181;-52
2023/01/14 02:49:54;;;;;;;2.20;0.93;;;5.80;99.90;;;;;;5009255;28;20200;-54
2023/01/14 02:52:20;;;;;;;2.00;1.20;;;5.80;99.90;;;;;;5009140;28;20187;-53
2023/01/14 02:54:57;;;;;;;1.50;0.97;;;5.80;99.90;;;;;;5008355;28;20188;-56
2023/01/14 02:57:35;;;;;;;1.93;1.10;;;5.80;99.90;;;;;;4992178;28;20659;-55
2023/01/14 03:00:19;;;;;;;2.77;1.10;;;5.90;99.90;;;;;;4993775;28;20236;-53
2023/01/14 03:02:50;;;;;;;3.30;1.13;;;5.90;99.90;;;;;;4996407;28;20173;-55
2023/01/14 03:05:34;;;;;;;3.03;1.30;;;6.10;99.90;;;;;;5001395;28;20169;-56
2023/01/14 03:08:04;;;;;;;2.93;1.20;;;6.10;99.90;;;;;;5010503;28;20207;-52
2023/01/14 03:10:40;;;;;;;3.30;1.47;;;5.90;99.90;;;;;;5000741;28;20209;-58
2023/01/14 03:13:11;;;;;;;2.70;1.23;;;5.80;99.90;;;;;;4993421;28;20193;-55
2023/01/14 03:15:51;;;;;;;5.30;1.37;;;5.70;99.90;;;;;;5004310;28;20207;-58
2023/01/14 03:18:41;;;;;;;1.50;0.93;;;5.60;99.90;;;;;;5006778;28;20256;-54
2023/01/14 03:21:18;;;;;;;2.90;1.40;;;5.60;99.90;;;;;;4995370;28;20197;-57
2023/01/14 03:24:04;;;;;;;0.80;0.80;;;5.80;99.90;;;;;;5008900;28;20263;-52
2023/01/14 03:26:31;;;;;;;2.20;1.40;;;6.10;99.90;;;;;;5005247;28;20549;-56
2023/01/14 03:29:00;;;;;;;1.37;0.80;;;6.30;99.90;;;;;;5010376;28;20192;-52
2023/01/14 03:31:29;;;;;;;2.40;1.00;;;6.50;99.90;;;;;;5013417;28;20204;-52
2023/01/14 03:34:00;;;;;;;2.90;1.17;;;6.70;99.90;;;;;;5013275;28;20181;-57
2023/01/14 03:36:28;;;;;;;1.40;1.00;;;6.70;99.90;;;;;;4995290;28;20244;-54
2023/01/14 03:39:01;;;;;;;1.03;1.00;;;6.80;99.90;;;;;;5006937;28;20747;-54
2023/01/14 03:44:22;;;;;;;3.13;1.50;;;6.80;99.90;;;;;;4997885;28;20192;-55
2023/01/14 03:46:47;;;;;;;2.83;1.10;;;6.70;99.90;;;;;;4993718;28;20185;-52
2023/01/14 03:49:13;;;;;;;2.37;0.97;;;6.80;99.90;;;;;;5010272;28;20311;-55
2023/01/14 03:51:46;;;;;;;1.23;1.10;;;6.90;99.90;;;;;;5009370;28;20207;-54
2023/01/14 03:54:29;;;;;;;1.87;1.00;;;7.00;99.90;;;;;;4994026;28;20252;-53
2023/01/14 03:57:10;;;;;;;1.77;1.20;;;7.10;99.90;;;;;;5011401;28;20190;-55
2023/01/14 03:59:48;;;;;;;3.23;1.50;;;7.20;99.90;;;;;;5009328;28;20243;-54
2023/01/14 04:02:15;;;;;;;2.77;1.47;;;7.20;99.90;;;;;;5001896;28;20173;-57
2023/01/14 04:04:43;;;;;;;2.60;1.03;;;7.20;99.90;;;;;;5006479;28;20180;-53
2023/01/14 04:07:09;;;;;;;1.50;1.03;;;7.20;99.90;;;;;;5013281;28;20255;-52
2023/01/14 04:09:34;;;;;;;2.27;1.10;;;7.10;99.90;;;;;;4993394;28;20284;-54
2023/01/14 04:12:00;;;;;;;3.20;1.50;;;7.10;99.90;;;;;;4997846;28;20183;-55
2023/01/14 04:17:09;;;;;;;3.73;2.03;;;6.80;99.90;;;;;;4993989;28;20305;-54
2023/01/14 04:19:35;;;;;;;4.07;1.73;;;6.80;99.90;;;;;;5012335;28;20204;-55
2023/01/14 04:22:00;;;;;;;5.33;1.60;;;7.00;99.90;;;;;;5001948;28;20187;-53
2023/01/14 04:24:26;;;;;;;2.67;1.30;;;7.00;99.90;;;;;;5010831;28;20654;-52
2023/01/14 04:26:51;;;;;;;3.40;1.60;;;7.10;99.90;;;;;;5012746;28;20172;-54
2023/01/14 04:29:17;;;;;;;2.97;0.90;;;7.00;99.90;;;;;;5011905;28;20657;-52
2023/01/14 04:31:42;;;;;;;3.20;1.43;;;6.90;99.90;;;;;;5006645;28;20196;-55
2023/01/14 04:34:09;;;;;;;2.53;1.13;;;6.90;99.90;;;;;;5005186;28;20181;-53
2023/01/14 04:36:34;;;;;;;1.90;1.10;;;6.90;99.90;;;;;;4993367;28;20192;-53
2023/01/14 04:39:00;;;;;;;3.03;1.40;;;7.00;99.90;;;;;;5006579;28;20204;-56
2023/01/14 04:44:10;;;;;;;2.33;1.20;;;7.20;99.90;;;;;;5012116;28;20257;-56
2023/01/14 04:46:35;;;;;;;3.97;1.20;;;6.80;99.90;;;;;;5009363;28;20716;-53
2023/01/14 04:49:01;;;;;;;1.60;1.30;;;6.60;99.90;;;;;;5005646;28;20218;-55
2023/01/14 04:51:26;;;;;;;3.47;1.43;;;6.70;99.90;;;;;;5010571;28;20566;-56
2023/01/14 04:53:52;;;;;;;2.50;1.27;;;6.90;99.90;;;;;;5011599;28;20269;-54
2023/01/14 04:56:17;;;;;;;1.27;1.10;;;7.00;99.90;;;;;;5010761;28;20215;-53
2023/01/14 04:58:43;;;;;;;2.93;1.40;;;7.10;99.90;;;;;;5009128;28;20236;-52
2023/01/14 05:01:08;;;;;;;1.03;0.93;;;7.30;99.90;;;;;;5007933;28;20193;-52
2023/01/14 05:03:34;;;;;;;1.63;1.00;;;7.30;99.90;;;;;;5006838;28;20664;-52
2023/01/14 05:06:00;;;;;;;2.80;1.30;;;7.30;99.90;;;;;;5008411;28;20181;-55
2023/01/14 05:08:25;;;;;;;3.13;1.10;;;7.30;99.90;;;;;;4992598;28;20169;-55
2023/01/14 05:10:51;;;;;;;4.07;1.20;;;7.50;99.90;;;;;;5044598;22;20242;-53
2023/01/14 05:13:17;;;;;;;4.37;1.43;;;7.50;99.90;;;;;;4993616;28;20252;-53
2023/01/14 05:15:44;;;;;;;3.43;1.10;;;7.50;99.90;;;;;;4993884;28;20180;-52
2023/01/14 05:18:12;;;;;;;3.70;1.20;;;7.60;99.90;;;;;;4994467;28;20170;-51
2023/01/14 05:20:38;;;;;;;4.53;1.63;;;7.60;99.90;;;;;;4990522;28;20238;-52
2023/01/14 05:23:12;;;;;;;2.43;1.17;;;7.60;99.90;;;;;;4987352;28;20750;-53
2023/01/14 05:25:38;;;;;;;1.60;1.10;;;7.40;99.90;;;;;;4990498;28;20185;-51
2023/01/14 05:28:08;;;;;;;3.43;1.33;;;7.40;99.90;;;;;;4975534;28;20215;-54
2023/01/14 05:30:34;;;;;;;3.20;1.13;;;7.30;99.90;;;;;;4990360;28;20267;-52
2023/01/14 05:33:00;;;;;;;1.93;1.27;;;7.20;99.90;;;;;;4992150;28;20185;-53
2023/01/14 05:35:26;;;;;;;2.93;1.67;;;7.20;99.90;;;;;;4976973;28;20177;-55
2023/01/14 05:37:51;;;;;;;2.63;1.20;;;7.30;99.90;;;;;;4973810;28;20531;-51
2023/01/14 05:40:17;;;;;;;2.73;1.30;;;7.40;99.90;;;;;;4990059;28;20910;-51
2023/01/14 05:45:48;;;;;;;2.80;1.40;;;7.30;99.90;;;;;;4989429;28;20211;-51
2023/01/14 05:48:15;;;;;;;2.07;1.30;;;7.40;99.90;;;;;;4991788;28;20171;-52
2023/01/14 05:50:40;;;;;;;2.63;1.10;;;7.50;99.90;;;;;;4977804;28;20225;-54
2023/01/14 05:53:07;;;;;;;2.33;1.20;;;7.60;99.90;;;;;;4972338;28;20611;-50
2023/01/14 05:55:33;;;;;;;2.23;1.40;;;7.60;99.90;;;;;;4979468;28;20191;-52
2023/01/14 05:58:01;;;;;;;2.43;1.27;;;7.70;99.90;;;;;;4985015;28;20671;-50
2023/01/14 06:06:22;;;;;;;3.17;1.70;;;6.70;99.90;;;;;;4972616;28;20232;-52
2023/01/14 06:08:54;;;;;;;2.57;1.43;;;8.00;99.90;;;;;;4983218;28;20184;-53
2023/01/14 06:11:23;;;;;;;3.57;1.50;;;8.00;99.90;;;;;;4989651;28;20217;-51
2023/01/14 06:13:49;;;;;;;2.70;1.30;;;8.00;99.90;;;;;;4985176;28;20631;-52
2023/01/14 06:16:15;;;;;;;2.23;1.30;;;8.00;99.90;;;;;;4989379;28;20636;-51
2023/01/14 06:18:42;;;;;;;2.17;1.37;;;7.90;99.90;;;;;;4972387;28;20201;-51
2023/01/14 06:21:10;;;;;;;1.97;1.20;;;8.00;99.90;;;;;;4982192;28;20247;-51
2023/01/14 06:23:36;;;;;;;2.23;1.13;;;8.00;99.90;;;;;;4990796;28;20256;-48
2023/01/14 06:26:02;;;;;;;4.40;1.40;;;8.00;99.90;;;;;;4988714;28;20259;-49
2023/01/14 06:28:28;;;;;;;2.57;1.27;;;7.90;99.90;;;;;;4979572;28;20213;-52
2023/01/14 06:30:54;;;;;;;5.30;1.57;;;8.00;99.90;;;;;;4985806;28;20197;-50
2023/01/14 06:33:20;;;;;;;3.23;1.40;;;8.00;99.90;;;;;;4981869;28;20547;-51
2023/01/14 06:35:45;;;;;;;3.33;1.20;;;8.10;99.90;;;;;;4972819;28;20186;-51
2023/01/14 06:38:12;;;;;;;3.53;1.43;;;8.10;99.90;;;;;;4978703;28;20177;-51
2023/01/14 06:40:39;;;;;;;2.67;1.00;;;8.00;99.90;;;;;;4978840;28;20280;-50
2023/01/14 06:43:06;;;;;;;3.33;1.57;;;7.90;99.90;;;;;;4989986;28;20182;-52
2023/01/14 06:45:32;;;;;;;3.53;1.40;;;7.90;99.90;;;;;;4973664;28;20178;-52
2023/01/14 06:47:58;;;;;;;2.97;1.40;;;7.80;99.90;;;;;;4977650;28;20169;-51
2023/01/14 06:50:24;;;;;;;1.77;1.20;;;7.90;99.90;;;;;;4993741;28;20173;-52
2023/01/14 06:52:49;;;;;;;2.30;1.20;;;7.90;99.90;;;;;;4995656;28;20335;-54
2023/01/14 06:55:15;;;;;;;2.67;1.50;;;8.00;99.90;;;;;;4994758;28;20177;-53
2023/01/14 06:57:42;;;;;;;2.57;1.37;;;8.10;99.90;;;;;;4994166;28;20177;-49
2023/01/14 07:00:08;;;;;;;2.70;1.00;;;8.10;99.90;;;;;;4983535;28;20205;-55
2023/01/14 07:02:34;;;;;;;3.30;1.60;;;8.10;99.90;;;;;;4985334;28;20165;-49
2023/01/14 07:04:59;;;;;;;1.97;1.20;;;8.00;99.90;;;;;;4984897;28;20661;-50
2023/01/14 07:07:25;;;;;;;2.00;1.50;;;7.90;99.90;;;;;;4983624;28;20702;-52
2023/01/14 07:09:50;;;;;;;3.87;1.77;;;8.00;99.90;;;;;;4975650;28;20543;-51
2023/01/14 07:12:16;;;;;;;2.27;1.70;;;8.00;99.90;;;;;;4975094;28;20687;-54
2023/01/14 07:14:41;;;;;;;2.30;1.60;;;8.00;99.90;;;;;;4977964;28;20212;-52
2023/01/14 07:17:07;;;;;;;1.73;1.50;;;8.00;99.90;;;;;;4987696;28;20181;-49
2023/01/14 07:19:32;;;;;;;2.03;1.63;;;7.90;99.90;;;;;;4994290;28;20197;-51
2023/01/14 07:21:58;;;;;;;3.27;1.80;;;7.80;99.90;;;;;;4993125;28;20185;-55
2023/01/14 07:24:23;;;;;;;3.73;2.10;;;7.80;99.90;;;;;;4994116;28;20255;-51
2023/01/14 07:26:49;;;;;;;34.17;24.47;;;8.60;99.90;;;;;;4988007;28;20170;-52
2023/01/14 07:29:15;;;;;;;29.20;21.03;;;7.80;99.90;;;;;;4990688;28;20173;-54
2023/01/14 07:31:41;;;;;;;104.87;80.07;;;7.80;99.90;;;;;;4993067;28;20233;-53
2023/01/14 07:34:07;;;;;;;78.13;53.43;;;7.80;99.90;;;;;;4994432;28;20667;-53
2023/01/14 07:36:32;;;;;;;191.37;119.43;;;7.80;99.90;;;;;;4992063;28;20189;-49
2023/01/14 07:38:58;;;;;;;533.70;373.73;;;7.80;99.90;;;;;;4975054;28;20202;-53
2023/01/14 07:41:24;;;;;;;14.27;11.00;;;7.70;99.90;;;;;;4974646;28;20659;-51
2023/01/14 07:43:50;;;;;;;9.57;7.60;;;7.70;99.90;;;;;;4974485;28;20178;-52
2023/01/14 07:46:16;;;;;;;7.77;6.30;;;7.80;99.90;;;;;;4975712;28;20872;-51
2023/01/14 07:48:44;;;;;;;4.87;3.63;;;7.80;99.90;;;;;;4975306;28;20177;-51
2023/01/14 07:51:10;;;;;;;4.40;1.90;;;9.40;99.90;;;;;;4983054;28;20185;-50
2023/01/14 07:53:36;;;;;;;3.50;1.30;;;7.80;99.90;;;;;;4993679;28;20740;-51
2023/01/14 07:56:03;;;;;;;2.73;1.60;;;7.80;99.90;;;;;;4987362;28;20181;-52
2023/01/14 07:58:28;;;;;;;3.27;1.63;;;7.80;99.90;;;;;;4984769;28;20197;-52
2023/01/14 08:00:54;;;;;;;3.10;1.43;;;7.80;99.90;;;;;;4984293;28;20247;-51
2023/01/14 08:03:21;;;;;;;3.27;1.57;;;7.80;99.90;;;;;;4993603;28;20180;-52
2023/01/14 08:05:47;;;;;;;5.97;4.10;;;7.70;99.90;;;;;;4992868;28;20173;-53
2023/01/14 08:08:12;;;;;;;4.23;3.83;;;7.80;99.90;;;;;;4990373;28;20204;-53
2023/01/14 08:10:38;;;;;;;2.13;1.50;;;9.00;99.90;;;;;;4992523;28;20522;-51
2023/01/14 08:13:04;;;;;;;3.60;1.73;;;8.10;99.90;;;;;;4982335;28;20197;-55
2023/01/14 08:15:29;;;;;;;4.13;1.53;;;8.70;99.90;;;;;;4989727;28;20782;-54
2023/01/14 08:17:55;;;;;;;4.33;1.97;;;10.80;99.90;;;;;;4991593;28;20681;-53
2023/01/14 08:20:22;;;;;;;3.40;1.93;;;11.00;99.90;;;;;;4987122;28;20237;-53
2023/01/14 08:22:49;;;;;;;4.10;2.73;;;12.60;99.90;;;;;;4991807;28;20183;-52
2023/01/14 08:25:15;;;;;;;4.77;3.37;;;14.20;99.90;;;;;;4992366;28;20223;-54
2023/01/14 08:27:40;;;;;;;4.03;2.90;;;15.80;99.90;;;;;;4991813;28;20584;-51
2023/01/14 08:30:07;;;;;;;4.17;2.57;;;17.20;99.60;;;;;;4991122;28;20175;-53
2023/01/14 08:32:32;;;;;;;3.05;1.90;;;18.60;96.80;;;;;;4991586;28;20205;-51
2023/01/14 08:34:58;;;;;;;1.88;1.67;;;19.70;94.60;;;;;;4989392;28;20237;-55
2023/01/14 08:37:23;;;;;;;2.03;1.50;;;20.60;93.20;;;;;;4982213;28;20189;-55
2023/01/14 08:39:49;;;;;;;2.90;1.83;;;21.10;90.70;;;;;;4986072;28;20232;-55
2023/01/14 08:42:15;;;;;;;7.60;5.55;;;21.70;90.10;;;;;;4992428;28;20267;-53
2023/01/14 08:44:40;;;;;;;37.42;31.80;;;22.50;87.30;;;;;;4991417;28;20205;-56
2023/01/14 08:47:06;;;;;;;144.63;121.90;;;22.90;81.50;;;;;;4988763;28;20197;-50
2023/01/14 08:49:31;;;;;;;39.92;34.47;;;22.90;79.10;;;;;;4989039;28;20185;-54
2023/01/14 08:51:58;;;;;;;22.25;17.23;;;22.70;78.40;;;;;;4990786;28;20220;-52
2023/01/14 08:54:23;;;;;;;46.13;37.25;;;22.60;77.70;;;;;;4990993;28;20582;-57
2023/01/14 08:56:49;;;;;;;7.88;6.65;;;22.90;78.20;;;;;;4990438;28;20247;-56
2023/01/14 08:59:14;;;;;;;33.35;29.70;;;23.10;76.10;;;;;;4990655;28;20682;-54
2023/01/14 09:01:40;;;;;;;5.03;4.10;;;23.10;75.80;;;;;;4990322;28;20623;-48
2023/01/14 09:04:06;;;;;;;2.88;2.05;;;23.30;74.70;;;;;;4990976;28;20638;-51
2023/01/14 09:17:04;;;;;;;3.15;2.13;;;22.80;75.10;;;;;;4984875;28;20181;-50
2023/01/14 09:17:29;;;;;;;4.00;3.60;;;24.10;72.10;;;;;;4974417;28;20228;-51
2023/01/14 09:19:57;;;;;;;2.25;1.50;;;25.00;69.40;;;;;;4973501;28;20707;-52
2023/01/14 09:22:28;;;;;;;3.17;1.70;;;25.70;67.00;;;;;;4980185;28;20200;-51
2023/01/14 09:24:53;;;;;;;2.70;1.50;;;26.30;65.40;;;;;;4992097;28;20216;-55
2023/01/14 09:27:20;;;;;;;2.13;1.40;;;26.40;63.60;;;;;;4987566;28;20169;-52
2023/01/14 09:29:46;;;;;;;1.58;1.30;;;26.50;63.00;;;;;;4992222;28;20179;-50
2023/01/14 09:32:13;;;;;;;1.83;1.38;;;26.90;61.80;;;;;;4981939;28;20198;-53
2023/01/14 09:34:41;;;;;;;1.90;1.60;;;26.30;61.10;;;;;;4972189;28;20655;-54
2023/01/14 09:37:07;;;;;;;2.85;1.50;;;25.80;62.00;;;;;;4972935;28;22198;-52
2023/01/14 09:39:33;;;;;;;3.83;1.52;;;25.30;63.40;;;;;;4989320;28;20216;-50
2023/01/14 09:42:06;;;;;;;3.08;1.67;;;25.80;61.90;;;;;;4990309;28;20540;-51
2023/01/14 09:44:32;;;;;;;2.45;1.70;;;27.00;60.40;;;;;;4991353;28;20241;-56
2023/01/14 09:46:58;;;;;;;5.10;4.60;;;28.10;58.50;;;;;;4991542;28;20224;-55
2023/01/14 09:49:26;;;;;;;3.35;1.60;;;29.00;55.70;;;;;;4991206;28;20177;-54
2023/01/14 09:52:00;;;;;;;4.38;3.92;;;29.60;54.20;;;;;;4991844;28;20193;-54
2023/01/14 09:54:29;;;;;;;3.70;1.67;;;29.60;52.10;;;;;;4991341;28;20217;-52
2023/01/14 09:57:07;;;;;;;3.47;1.60;;;30.00;52.50;;;;;;4991511;28;20216;-53
2023/01/14 09:59:50;;;;;;;2.78;1.50;;;30.60;50.80;;;;;;4991557;28;20255;-50
2023/01/14 10:02:22;;;;;;;2.40;1.48;;;30.70;50.10;;;;;;4980987;28;20196;-54
2023/01/14 10:05:06;;;;;;;2.05;1.50;;;30.70;48.70;;;;;;4978674;28;20198;-57
2023/01/14 10:07:34;;;;;;;2.35;1.60;;;30.80;47.00;;;;;;4972327;28;20213;-55
2023/01/14 10:10:01;;;;;;;4.85;1.73;;;31.00;46.90;;;;;;4983098;28;20177;-53
2023/01/14 10:12:36;;;;;;;3.22;1.60;;;30.30;46.90;;;;;;4990548;28;20634;-55
2023/01/14 10:15:14;;;;;;;3.10;2.40;;;29.90;46.20;;;;;;4987992;28;20272;-51
2023/01/14 10:17:43;;;;;;;2.35;1.70;;;29.50;46.70;;;;;;4974888;28;20181;-55
2023/01/14 10:20:22;;;;;;;2.72;1.70;;;29.30;47.50;;;;;;4991545;28;20314;-56
2023/01/14 10:22:56;;;;;;;4.45;2.47;;;29.60;46.80;;;;;;4971696;28;20189;-55
2023/01/14 10:25:23;;;;;;;2.78;1.77;;;30.00;46.10;;;;;;4971734;28;20186;-53
2023/01/14 10:27:53;;;;;;;3.60;1.50;;;30.40;45.90;;;;;;4972662;28;20205;-55
2023/01/14 10:30:34;;;;;;;2.45;1.38;;;30.10;45.50;;;;;;4990602;28;20189;-55
2023/01/14 10:33:04;;;;;;;2.00;1.40;;;30.00;45.10;;;;;;4991424;28;20189;-54
2023/01/14 10:35:34;;;;;;;4.15;1.98;;;30.40;44.20;;;;;;4974015;28;20189;-56
2023/01/14 10:38:00;;;;;;;2.75;1.60;;;30.20;43.20;;;;;;4974845;28;20233;-51
2023/01/14 10:40:28;;;;;;;2.35;1.80;;;28.90;44.80;;;;;;4984361;28;20227;-55
2023/01/14 10:42:56;;;;;;;2.67;2.05;;;27.80;46.30;;;;;;4973233;28;20711;-50
2023/01/14 10:45:22;;;;;;;2.58;1.88;;;27.20;47.20;;;;;;4975929;28;20185;-51
2023/01/14 10:47:53;;;;;;;4.13;1.75;;;26.20;46.90;;;;;;4990543;28;20173;-52
2023/01/14 10:50:24;;;;;;;4.65;1.60;;;25.10;48.70;;;;;;4990583;28;20783;-52
2023/01/14 10:52:50;;;;;;;1.70;1.50;;;24.70;49.70;;;;;;4990893;28;20177;-51
2023/01/14 10:55:25;;;;;;;4.30;1.85;;;24.60;50.20;;;;;;4982374;28;20205;-55
2023/01/14 10:57:59;;;;;;;3.83;2.08;;;24.40;50.10;;;;;;4990493;28;20185;-54
2023/01/14 11:00:34;;;;;;;4.20;2.72;;;24.80;51.70;;;;;;4991151;28;20557;-52
2023/01/14 11:03:01;;;;;;;3.00;1.77;;;25.50;50.00;;;;;;4988510;28;20176;-56
2023/01/14 11:05:28;;;;;;;3.00;1.45;;;26.00;50.60;;;;;;4988638;28;20202;-54
2023/01/14 11:07:57;;;;;;;2.83;1.38;;;26.80;48.50;;;;;;4990476;28;20256;-54
2023/01/14 11:13:27;;;;;;;2.63;1.20;;;26.10;48.80;;;;;;4985696;28;20232;-57
2023/01/14 11:15:53;;;;;;;3.08;1.38;;;25.50;48.50;;;;;;4984424;28;20559;-59
2023/01/14 11:18:19;;;;;;;3.05;1.50;;;25.20;49.50;;;;;;4990454;28;20567;-58
2023/01/14 11:21:10;;;;;;;4.13;1.60;;;23.90;49.30;;;;;;4986938;28;20219;-54
2023/01/14 11:23:38;;;;;;;3.55;1.90;;;23.50;51.40;;;;;;4971104;28;20174;-54
2023/01/14 11:26:24;;;;;;;3.17;1.65;;;23.50;52.40;;;;;;4970022;28;20178;-56
2023/01/14 11:28:52;;;;;;;2.72;1.33;;;23.70;51.30;;;;;;4975389;28;20181;-56
2023/01/14 11:31:32;;;;;;;4.13;1.70;;;23.50;51.40;;;;;;4970570;28;20198;-58
2023/01/14 11:33:58;;;;;;;4.22;1.90;;;22.80;51.70;;;;;;4971039;28;20212;-57
2023/01/14 11:36:26;;;;;;;2.78;1.52;;;21.70;52.60;;;;;;4973672;28;20186;-55
2023/01/14 11:38:56;;;;;;;2.25;1.35;;;21.00;55.20;;;;;;4973923;28;20182;-55
2023/01/14 11:41:34;;;;;;;3.20;1.60;;;20.90;55.90;;;;;;4974871;28;20679;-54
2023/01/14 11:44:22;;;;;;;3.67;1.50;;;21.10;56.50;;;;;;4972060;28;20186;-57
2023/01/14 11:47:12;;;;;;;2.85;1.75;;;20.80;56.60;;;;;;4974239;28;20315;-56
2023/01/14 11:49:38;;;;;;;3.22;1.60;;;20.70;55.70;;;;;;4967096;28;20180;-56
2023/01/14 11:52:08;;;;;;;2.78;1.50;;;20.50;55.90;;;;;;4973793;28;20678;-57
2023/01/14 11:54:39;;;;;;;4.22;1.83;;;20.50;56.90;;;;;;4973845;28;20177;-55
2023/01/14 11:57:11;;;;;;;5.93;2.50;;;20.40;56.80;;;;;;4974303;28;20272;-56
2023/01/14 11:59:38;;;;;;;3.73;1.70;;;20.20;57.00;;;;;;4973388;28;20213;-58
2023/01/14 12:02:19;;;;;;;18.43;12.93;;;19.80;57.90;;;;;;4973472;28;20202;-58
2023/01/14 12:05:16;;;;;;;5.53;2.80;;;19.50;58.60;;;;;;4974205;28;20206;-59
2023/01/14 12:07:46;;;;;;;14.63;10.83;;;19.00;59.10;;;;;;4974152;28;20607;-57
2023/01/14 12:10:22;;;;;;;6.17;4.40;;;18.60;60.90;;;;;;4974411;28;20283;-55
2023/01/14 12:18:50;;;;;;;4.73;1.93;;;17.40;63.70;;;;;;4974597;28;20533;-59
2023/01/14 12:21:25;;;;;;;4.53;1.90;;;16.90;65.40;;;;;;4973901;28;20193;-55
2023/01/14 12:24:02;;;;;;;5.20;2.00;;;16.60;66.10;;;;;;4973644;28;20173;-58
2023/01/14 12:26:37;;;;;;;3.57;1.67;;;16.30;67.60;;;;;;4974116;28;20166;-56
2023/01/14 12:29:08;;;;;;;4.20;1.67;;;16.20;68.50;;;;;;4974138;28;20582;-53
2023/01/14 12:31:48;;;;;;;4.13;2.00;;;16.10;68.80;;;;;;4974021;28;20574;-56
2023/01/14 12:34:39;;;;;;;4.53;1.90;;;15.70;70.30;;;;;;4973624;28;20177;-56
2023/01/14 12:37:14;;;;;;;3.80;1.80;;;15.20;72.70;;;;;;4963788;28;20672;-55
2023/01/14 12:48:02;;;;;;;5.57;2.50;;;14.60;77.70;;;;;;4973961;28;20190;-50
2023/01/14 12:50:29;;;;;;;5.77;2.60;;;14.40;78.60;;;;;;4973598;28;20203;-51
2023/01/14 12:52:55;;;;;;;5.37;3.20;;;14.00;79.60;;;;;;4971461;28;20199;-56
2023/01/14 12:55:34;;;;;;;7.37;3.53;;;13.80;81.80;;;;;;4972993;28;20517;-53
2023/01/14 12:58:03;;;;;;;5.73;3.50;;;13.60;83.10;;;;;;4973597;28;20170;-55
2023/01/14 13:00:32;;;;;;;5.73;3.47;;;13.30;84.00;;;;;;4973427;28;20281;-52
2023/01/14 13:03:02;;;;;;;5.80;2.47;;;13.20;85.60;;;;;;4973544;28;20188;-58
2023/01/14 13:05:34;;;;;;;7.43;3.33;;;13.30;86.00;;;;;;4972894;28;20181;-52
2023/01/14 13:08:07;;;;;;;8.57;5.20;;;13.30;87.40;;;;;;4973414;28;20531;-54
2023/01/14 13:10:36;;;;;;;9.83;5.43;;;13.30;88.10;;;;;;4971553;28;20217;-50
2023/01/14 13:13:04;;;;;;;10.83;5.70;;;13.20;89.50;;;;;;4973187;28;20198;-53
2023/01/14 13:15:38;;;;;;;9.47;5.83;;;13.30;88.70;;;;;;4972747;28;20182;-56
2023/01/14 13:18:25;;;;;;;4.90;2.20;;;13.30;90.00;;;;;;4973233;28;20666;-54
2023/01/14 13:20:51;;;;;;;13.47;8.70;;;13.10;90.30;;;;;;4972860;28;20206;-56
2023/01/14 13:23:37;;;;;;;9.13;5.67;;;13.20;90.90;;;;;;4973035;28;20171;-53
2023/01/14 13:26:40;;;;;;;7.23;4.00;;;13.20;90.00;;;;;;4972936;28;20695;-54
2023/01/14 13:29:15;;;;;;;4.93;2.40;;;12.90;90.70;;;;;;4964125;28;20665;-53
2023/01/14 13:31:41;;;;;;;4.83;2.20;;;13.00;90.80;;;;;;4962767;28;20277;-53
2023/01/14 13:34:21;;;;;;;6.10;2.90;;;13.00;90.70;;;;;;4962348;28;20340;-57
2023/01/14 13:37:08;;;;;;;9.37;5.57;;;12.90;90.80;;;;;;4994486;28;20185;-53
2023/01/14 13:39:34;;;;;;;11.13;5.93;;;12.80;91.50;;;;;;4972257;28;20313;-53
2023/01/14 13:42:12;;;;;;;4.30;1.90;;;12.70;91.90;;;;;;4972486;28;20201;-55
2023/01/14 13:44:45;;;;;;;5.47;2.13;;;12.70;92.30;;;;;;4971794;28;20188;-56
2023/01/14 13:47:22;;;;;;;6.10;2.17;;;12.70;92.70;;;;;;4971116;28;20214;-56
2023/01/14 13:50:01;;;;;;;5.23;1.83;;;12.80;92.80;;;;;;4970994;28;20245;-52
2023/01/14 13:52:30;;;;;;;6.40;2.30;;;12.70;93.00;;;;;;4971181;28;20267;-57